Capitol Logistics 995


FMEE
Roland Garros
St. Denis, FR
FIMP
Sir Seewoosagur Ramgoolam International Airport
Mauritius, MU

Activity Log

Date Flight Route Aircraft Duration
03/30/2020 CPX995 EPTE1J EPTEK ETKIS FF FF1 B763 0h 41m
12/20/2019 CPX995 FF4C FF B763 0h 46m
11/17/2019 CPX995 Not Available B763 0h 41m

Route Details

Aircraft Information
Primary: Boeing 767-300BDSF
Backup: Not Available
Route Data
Distance: 125nm
Sched. Duration: 0h 25m
Avg. Duration: 0h 42m (+18m)
Times Flown: 3
Recm'd Route: Not Available
Planned Altitude: 15,000ft
Origin Wx: FMEE 080630Z AUTO 03005KT 9999 SCT052 25/13 Q1019 TEMPO 30015G30KT
Dest. Wx: FIMP 080600Z 18005KT 9999 FEW017 SCT050 23/14 Q1020
Notes:

Financial History
Total Freight: 232,781lbs
Average Load: 77,594lbs/flt
Fuel Used: 17,500lbs
Avg. Fuel Used: 5,833lbs/flt
Fuel Expense: $21,350
Avg. Fuel Expense: $7,117
Avg. Fuel Cost: $1.22/lbs
Total Gross Income: $2,285,909
Pilot Pay: $567
Total Expenses: $247,034
Total Revenue: $2,017,107
Average Revenue: $761,969.81